createdAt,value
2022-07-25T00:00:54.433Z,23.96
2022-07-25T00:03:52.232Z,23.95
2022-07-25T00:06:49.997Z,23.87
2022-07-25T00:09:46.927Z,23.91
2022-07-25T00:12:43.914Z,23.96
2022-07-25T00:15:40.967Z,23.89
2022-07-25T00:18:38.168Z,23.80
2022-07-25T00:21:34.841Z,23.55
2022-07-25T00:24:32.269Z,23.40
2022-07-25T00:27:30.182Z,23.52
2022-07-25T00:30:27.956Z,23.69
2022-07-25T00:33:26.435Z,23.81
2022-07-25T00:36:24.084Z,23.95
2022-07-25T00:39:21.270Z,24.02
2022-07-25T00:42:18.727Z,24.09
2022-07-25T00:45:15.957Z,24.08
2022-07-25T00:48:12.951Z,24.05
2022-07-25T00:51:10.073Z,23.88
2022-07-25T00:54:07.079Z,23.84
2022-07-25T00:57:04.922Z,23.86
2022-07-25T01:00:04.937Z,23.97
2022-07-25T01:03:02.617Z,23.90
2022-07-25T01:06:00.001Z,23.85
2022-07-25T01:08:56.947Z,23.83
2022-07-25T01:11:53.704Z,23.84
2022-07-25T01:14:50.789Z,23.73
2022-07-25T01:17:47.999Z,23.56
2022-07-25T01:20:45.188Z,23.41
2022-07-25T01:23:42.685Z,23.39
2022-07-25T01:26:40.071Z,23.12
2022-07-25T01:29:36.695Z,22.91
2022-07-25T01:32:34.638Z,22.71
2022-07-25T01:35:31.587Z,22.68
2022-07-25T01:38:29.138Z,22.76
2022-07-25T01:41:25.955Z,22.84
2022-07-25T01:44:23.098Z,22.82
2022-07-25T01:47:20.076Z,22.74
2022-07-25T01:50:17.131Z,22.39
2022-07-25T01:53:15.153Z,22.12
2022-07-25T01:56:12.060Z,21.94
2022-07-25T01:59:09.898Z,21.83
2022-07-25T02:02:07.578Z,21.83
2022-07-25T02:05:05.277Z,21.93
2022-07-25T02:08:03.094Z,21.97
2022-07-25T02:11:00.372Z,21.83
2022-07-25T02:13:58.166Z,21.79
2022-07-25T02:16:56.434Z,21.76
2022-07-25T02:19:54.251Z,21.78
2022-07-25T02:22:51.878Z,21.78
2022-07-25T02:25:49.188Z,21.80
2022-07-25T02:28:45.929Z,21.89
2022-07-25T02:31:43.181Z,21.94
2022-07-25T02:34:39.938Z,22.01
2022-07-25T02:37:37.331Z,22.03
2022-07-25T02:40:35.063Z,21.99
2022-07-25T02:43:31.997Z,21.97
2022-07-25T02:46:29.074Z,21.95
2022-07-25T02:49:26.287Z,21.89
2022-07-25T02:52:22.883Z,21.90
2022-07-25T02:55:20.378Z,21.93
2022-07-25T02:58:17.856Z,21.97
2022-07-25T03:01:15.261Z,22.03
2022-07-25T03:04:12.944Z,22.07
2022-07-25T03:07:13.042Z,22.13
2022-07-25T03:10:11.297Z,22.14
2022-07-25T03:13:08.631Z,22.14
2022-07-25T03:16:06.575Z,22.23
2022-07-25T03:19:04.071Z,22.25
2022-07-25T03:22:01.070Z,22.14
2022-07-25T03:24:58.258Z,22.15
2022-07-25T03:27:54.929Z,22.09
2022-07-25T03:30:52.463Z,22.10
2022-07-25T03:33:50.339Z,22.07
2022-07-25T03:36:46.670Z,21.94
2022-07-25T03:39:44.370Z,21.95
2022-07-25T03:42:42.256Z,21.97
2022-07-25T03:45:39.095Z,21.94
2022-07-25T03:48:36.279Z,21.87
2022-07-25T03:51:34.319Z,21.97
2022-07-25T03:54:31.761Z,21.99
2022-07-25T03:57:29.421Z,22.03
2022-07-25T04:00:27.044Z,22.10
2022-07-25T04:03:24.200Z,22.15
2022-07-25T04:06:21.230Z,22.09
2022-07-25T04:09:17.963Z,22.21
2022-07-25T04:12:14.885Z,22.10
2022-07-25T04:15:13.107Z,22.18
2022-07-25T04:18:10.125Z,21.99
2022-07-25T04:21:12.340Z,22.00
2022-07-25T04:24:09.297Z,22.11
2022-07-25T04:27:06.761Z,22.20
2022-07-25T04:30:04.476Z,22.25
2022-07-25T04:33:02.077Z,22.30
2022-07-25T04:35:59.368Z,22.15
2022-07-25T04:38:57.122Z,22.11
2022-07-25T04:41:54.001Z,22.17
2022-07-25T04:44:50.996Z,22.19
2022-07-25T04:47:48.001Z,22.15
2022-07-25T04:50:45.272Z,22.05
2022-07-25T04:53:42.041Z,22.15
2022-07-25T04:56:38.860Z,22.35
2022-07-25T04:59:35.768Z,22.46
2022-07-25T05:02:33.176Z,22.38
2022-07-25T05:05:32.461Z,22.36
2022-07-25T05:08:30.062Z,22.40
2022-07-25T05:11:27.082Z,22.48
2022-07-25T05:14:24.351Z,22.50
2022-07-25T05:17:21.286Z,22.51
2022-07-25T05:20:18.025Z,22.49
2022-07-25T05:23:15.149Z,22.46
2022-07-25T05:26:12.132Z,22.45
2022-07-25T05:29:10.387Z,22.43
2022-07-25T05:32:07.068Z,22.57
2022-07-25T05:35:05.049Z,22.79
2022-07-25T05:38:02.538Z,22.89
2022-07-25T05:40:59.982Z,23.05
2022-07-25T05:43:57.057Z,23.22
2022-07-25T05:46:54.183Z,23.12
2022-07-25T05:49:51.090Z,23.28
2022-07-25T05:52:48.195Z,23.20
2022-07-25T05:55:45.044Z,23.27
2022-07-25T05:58:42.461Z,23.52
2022-07-25T06:01:40.406Z,23.70
2022-07-25T06:04:37.956Z,23.70
2022-07-25T06:07:35.051Z,23.56
2022-07-25T06:10:32.735Z,23.60
2022-07-25T06:13:30.306Z,23.60
2022-07-25T06:16:33.387Z,23.79
2022-07-25T06:19:31.058Z,23.90
2022-07-25T06:22:27.929Z,23.85
2022-07-25T06:25:25.093Z,24.03
2022-07-25T06:28:22.314Z,24.08
2022-07-25T06:31:19.121Z,24.15
2022-07-25T06:34:16.537Z,24.20
2022-07-25T06:37:14.042Z,24.20
2022-07-25T06:40:11.355Z,24.24
2022-07-25T06:43:08.321Z,24.31
2022-07-25T06:46:05.202Z,24.62
2022-07-25T06:49:02.041Z,24.66
2022-07-25T06:51:59.465Z,24.68
2022-07-25T06:54:56.761Z,24.80
2022-07-25T06:57:54.632Z,24.94
2022-07-25T07:00:52.290Z,25.04
2022-07-25T07:03:48.924Z,25.14
2022-07-25T07:06:46.518Z,25.29
2022-07-25T07:09:44.672Z,25.58
2022-07-25T07:12:42.416Z,25.80
2022-07-25T07:15:40.921Z,26.12
2022-07-25T07:18:38.269Z,26.23
2022-07-25T07:21:35.287Z,26.22
2022-07-25T07:24:32.445Z,26.31
2022-07-25T07:27:29.055Z,26.32
2022-07-25T07:30:44.208Z,26.26
2022-07-25T07:33:43.048Z,26.58
2022-07-25T07:36:39.978Z,26.64
2022-07-25T07:39:37.397Z,26.96
2022-07-25T07:42:46.005Z,27.06
2022-07-25T07:45:43.293Z,26.97
2022-07-25T07:48:40.111Z,27.00
2022-07-25T07:51:37.193Z,27.20
2022-07-25T07:54:57.675Z,27.41
2022-07-25T07:57:56.411Z,27.60
2022-07-25T08:00:54.371Z,27.74
2022-07-25T08:03:51.404Z,27.90
2022-07-25T08:06:48.395Z,28.14
2022-07-25T08:09:45.085Z,28.25
2022-07-25T08:12:42.447Z,28.16
2022-07-25T08:15:39.275Z,27.98
2022-07-25T08:18:36.165Z,27.89
2022-07-25T08:21:33.463Z,27.87
2022-07-25T08:24:30.439Z,27.98
2022-07-25T08:27:27.027Z,27.92
2022-07-25T08:30:24.851Z,28.01
2022-07-25T08:33:22.276Z,28.14
2022-07-25T08:36:19.108Z,28.29
2022-07-25T08:39:16.580Z,28.26
2022-07-25T08:42:14.100Z,28.34
2022-07-25T08:45:16.568Z,28.34
2022-07-25T08:48:14.751Z,28.46
2022-07-25T08:51:12.404Z,28.51
2022-07-25T08:54:09.623Z,28.42
2022-07-25T08:57:07.215Z,28.57
2022-07-25T09:00:06.369Z,28.54
2022-07-25T09:03:03.773Z,28.59
2022-07-25T09:06:01.044Z,28.46
2022-07-25T09:08:59.773Z,28.51
2022-07-25T09:11:57.147Z,28.49
2022-07-25T09:14:54.265Z,28.40
2022-07-25T09:17:52.181Z,28.40
2022-07-25T09:20:50.324Z,28.49
2022-07-25T09:23:47.841Z,28.60
2022-07-25T09:26:49.975Z,28.62
2022-07-25T09:29:47.237Z,28.71
2022-07-25T09:32:45.342Z,28.84
2022-07-25T09:35:42.459Z,28.95
2022-07-25T09:38:39.408Z,29.10
2022-07-25T09:41:37.167Z,29.24
2022-07-25T09:44:34.142Z,29.27
2022-07-25T09:47:32.596Z,29.44
2022-07-25T09:50:30.945Z,29.55
2022-07-25T09:53:28.522Z,29.52
2022-07-25T09:56:25.174Z,29.32
2022-07-25T09:59:22.033Z,29.31
2022-07-25T10:02:42.146Z,29.35
2022-07-25T10:05:48.670Z,29.48
2022-07-25T10:08:46.924Z,29.32
2022-07-25T10:12:06.847Z,29.34
2022-07-25T10:15:12.234Z,29.42
2022-07-25T10:18:09.402Z,29.51
2022-07-25T10:21:25.109Z,29.37
2022-07-25T10:24:33.416Z,29.56
2022-07-25T10:27:30.505Z,29.42
2022-07-25T10:30:29.225Z,29.31
2022-07-25T10:33:26.487Z,29.47
2022-07-25T10:36:24.670Z,29.66
2022-07-25T10:39:22.372Z,29.77
2022-07-25T10:42:22.773Z,29.78
2022-07-25T10:45:20.836Z,29.88
2022-07-25T10:48:23.230Z,30.01
2022-07-25T10:51:26.714Z,29.90
2022-07-25T10:54:24.760Z,29.87
2022-07-25T10:57:22.521Z,29.51
2022-07-25T11:00:19.760Z,29.35
2022-07-25T11:03:18.610Z,29.22
2022-07-25T11:06:16.573Z,29.35
2022-07-25T11:09:19.248Z,29.42
2022-07-25T11:12:19.603Z,29.64
2022-07-25T11:15:17.419Z,29.70
2022-07-25T11:18:14.685Z,29.75
2022-07-25T11:21:12.767Z,29.46
2022-07-25T11:24:10.398Z,29.30
2022-07-25T11:27:12.590Z,29.35
2022-07-25T11:30:11.591Z,29.53
2022-07-25T11:33:08.374Z,29.72
2022-07-25T11:36:05.884Z,29.73
2022-07-25T11:39:03.854Z,29.65
2022-07-25T11:42:04.109Z,29.62
2022-07-25T11:45:01.612Z,29.52
2022-07-25T11:48:12.132Z,29.55
2022-07-25T11:51:13.761Z,29.60
2022-07-25T11:54:16.690Z,29.40
2022-07-25T11:57:23.777Z,29.36
2022-07-25T12:00:22.169Z,29.27
2022-07-25T12:03:22.329Z,29.35
2022-07-25T12:06:19.634Z,29.21
2022-07-25T12:09:19.301Z,29.21
2022-07-25T12:12:16.578Z,29.07
2022-07-25T12:15:16.437Z,29.05
2022-07-25T12:18:13.823Z,29.13
2022-07-25T12:21:11.407Z,29.15
2022-07-25T12:24:08.529Z,29.15
2022-07-25T12:27:05.417Z,29.26
2022-07-25T12:30:02.730Z,28.86
2022-07-25T12:32:59.629Z,28.93
2022-07-25T12:35:56.435Z,28.99
2022-07-25T12:38:53.593Z,28.98
2022-07-25T12:41:50.529Z,28.68
2022-07-25T12:44:47.525Z,28.57
2022-07-25T12:47:45.265Z,28.60
2022-07-25T12:50:43.213Z,28.67
2022-07-25T12:53:42.627Z,28.66
2022-07-25T12:56:39.305Z,28.67
2022-07-25T12:59:36.944Z,28.62
2022-07-25T13:02:34.390Z,28.83
2022-07-25T13:05:31.165Z,29.10
2022-07-25T13:08:28.739Z,29.07
2022-07-25T13:11:25.845Z,28.98
2022-07-25T13:14:23.431Z,28.75
2022-07-25T13:17:24.930Z,28.53
2022-07-25T13:20:24.413Z,28.32
2022-07-25T13:23:21.865Z,28.17
2022-07-25T13:26:19.638Z,28.02
2022-07-25T13:29:16.234Z,27.93
2022-07-25T13:32:16.627Z,27.92
2022-07-25T13:35:17.701Z,27.66
2022-07-25T13:38:17.647Z,27.38
2022-07-25T13:41:14.425Z,27.35
2022-07-25T13:44:13.746Z,27.40
2022-07-25T13:47:10.686Z,27.54
2022-07-25T13:50:08.281Z,27.56
2022-07-25T13:53:06.202Z,27.84
2022-07-25T13:56:03.706Z,27.87
2022-07-25T13:59:01.566Z,27.72
2022-07-25T14:01:58.628Z,27.67
2022-07-25T14:04:55.534Z,27.60
2022-07-25T14:07:52.520Z,27.62
2022-07-25T14:10:49.485Z,27.46
2022-07-25T14:13:46.775Z,27.57
2022-07-25T14:16:43.883Z,27.77
2022-07-25T14:19:41.665Z,27.82
2022-07-25T14:22:39.652Z,27.85
2022-07-25T14:25:36.637Z,27.78
2022-07-25T14:28:33.525Z,27.63
2022-07-25T14:31:32.021Z,27.56
2022-07-25T14:34:29.412Z,27.71
2022-07-25T14:37:26.494Z,27.64
2022-07-25T14:40:23.485Z,27.58
2022-07-25T14:43:20.475Z,27.38
2022-07-25T14:46:17.675Z,27.33
2022-07-25T14:49:15.173Z,27.27
2022-07-25T14:52:12.996Z,27.13
2022-07-25T14:55:10.369Z,27.08
2022-07-25T14:58:07.869Z,26.97
2022-07-25T15:01:05.097Z,26.94
2022-07-25T15:04:02.758Z,26.97
2022-07-25T15:07:00.868Z,27.17
2022-07-25T15:09:57.482Z,27.29
2022-07-25T15:13:20.476Z,27.35
2022-07-25T15:16:13.043Z,26.95
2022-07-25T15:19:18.162Z,26.91
2022-07-25T15:22:15.517Z,26.83
2022-07-25T15:25:59.921Z,26.67
2022-07-25T15:28:29.527Z,26.67
2022-07-25T15:31:26.704Z,26.68
2022-07-25T15:34:23.773Z,26.78
2022-07-25T15:37:21.985Z,26.59
2022-07-25T15:40:19.549Z,26.49
2022-07-25T15:43:16.415Z,26.38
2022-07-25T15:46:14.071Z,26.00
2022-07-25T15:49:12.104Z,25.65
2022-07-25T15:52:09.465Z,25.43
2022-07-25T15:55:06.910Z,25.50
2022-07-25T15:58:05.017Z,25.44
2022-07-25T16:01:02.595Z,25.23
2022-07-25T16:04:01.092Z,25.08
2022-07-25T16:06:58.957Z,25.17
2022-07-25T16:09:56.686Z,25.30
2022-07-25T16:12:53.487Z,25.20
2022-07-25T16:15:51.100Z,25.17
2022-07-25T16:18:49.101Z,25.20
2022-07-25T16:21:46.875Z,25.20
2022-07-25T16:24:44.652Z,25.26
2022-07-25T16:27:41.888Z,25.40
2022-07-25T16:30:39.727Z,25.46
2022-07-25T16:33:36.627Z,25.55
2022-07-25T16:36:33.760Z,25.52
2022-07-25T16:39:30.620Z,25.65
2022-07-25T16:42:27.566Z,25.53
2022-07-25T16:45:27.884Z,25.48
2022-07-25T16:48:25.167Z,25.39
2022-07-25T16:51:23.015Z,25.34
2022-07-25T16:54:20.790Z,25.56
2022-07-25T16:57:17.886Z,25.63
2022-07-25T17:00:20.997Z,25.56
2022-07-25T17:03:17.610Z,25.47
2022-07-25T17:06:16.446Z,25.66
2022-07-25T17:09:13.675Z,25.59
2022-07-25T17:12:10.658Z,25.69
2022-07-25T17:15:08.464Z,25.86
2022-07-25T17:18:06.061Z,26.00
2022-07-25T17:21:04.321Z,25.93
2022-07-25T17:24:01.788Z,25.74
2022-07-25T17:26:58.419Z,25.76
2022-07-25T17:29:56.085Z,25.63
2022-07-25T17:32:54.005Z,25.60
2022-07-25T17:35:52.321Z,25.42
2022-07-25T17:38:49.802Z,25.40
2022-07-25T17:41:46.860Z,25.53
2022-07-25T17:44:43.708Z,25.64
2022-07-25T17:47:41.029Z,25.66
2022-07-25T17:50:37.567Z,25.85
2022-07-25T17:53:34.483Z,25.63
2022-07-25T17:56:31.713Z,25.49
2022-07-25T17:59:29.121Z,25.58
2022-07-25T18:02:26.860Z,25.61
2022-07-25T18:05:24.171Z,25.39
2022-07-25T18:08:21.973Z,25.27
2022-07-25T18:11:18.996Z,25.01
2022-07-25T18:14:15.594Z,25.07
2022-07-25T18:17:12.470Z,25.33
2022-07-25T18:20:11.658Z,25.42
2022-07-25T18:23:09.123Z,25.30
2022-07-25T18:26:07.113Z,25.18
2022-07-25T18:29:06.263Z,24.98
2022-07-25T18:32:03.943Z,24.80
2022-07-25T18:35:00.817Z,24.71
2022-07-25T18:37:57.780Z,24.72
2022-07-25T18:41:18.883Z,24.67
2022-07-25T18:44:12.016Z,24.79
2022-07-25T18:47:09.902Z,24.68
2022-07-25T18:50:08.370Z,24.50
2022-07-25T18:53:05.717Z,24.60
2022-07-25T18:56:03.051Z,24.61
2022-07-25T18:58:59.821Z,24.70
2022-07-25T19:01:57.508Z,24.55
2022-07-25T19:04:54.982Z,24.45
2022-07-25T19:07:52.001Z,24.31
2022-07-25T19:10:49.583Z,24.33
2022-07-25T19:13:50.127Z,24.22
2022-07-25T19:16:48.256Z,24.11
2022-07-25T19:19:45.537Z,24.20
2022-07-25T19:22:43.132Z,24.11
2022-07-25T19:25:41.093Z,24.11
2022-07-25T19:28:38.139Z,24.16
2022-07-25T19:31:35.543Z,24.14
2022-07-25T19:34:32.505Z,24.11
2022-07-25T19:37:29.987Z,24.09
2022-07-25T19:40:26.915Z,24.09
2022-07-25T19:43:23.843Z,23.98
2022-07-25T19:46:20.673Z,23.97
2022-07-25T19:49:18.308Z,24.00
2022-07-25T19:52:15.822Z,24.09
2022-07-25T19:55:12.978Z,23.99
2022-07-25T19:58:10.406Z,24.08
2022-07-25T20:01:08.011Z,24.16
2022-07-25T20:04:05.774Z,23.86
2022-07-25T20:07:03.094Z,23.62
2022-07-25T20:10:00.967Z,23.73
2022-07-25T20:13:01.384Z,23.85
2022-07-25T20:15:59.162Z,23.80
2022-07-25T20:18:55.793Z,23.85
2022-07-25T20:21:52.929Z,23.83
2022-07-25T20:24:50.169Z,24.01
2022-07-25T20:27:49.904Z,24.05
2022-07-25T20:30:46.921Z,24.03
2022-07-25T20:33:44.326Z,23.82
2022-07-25T20:36:42.520Z,23.83
2022-07-25T20:39:40.056Z,24.01
2022-07-25T20:42:38.206Z,24.06
2022-07-25T20:45:36.822Z,24.11
2022-07-25T20:48:34.796Z,24.19
2022-07-25T20:51:32.318Z,24.20
2022-07-25T20:54:29.565Z,24.19
2022-07-25T20:57:27.099Z,24.17
2022-07-25T21:00:25.856Z,24.07
2022-07-25T21:03:23.055Z,23.96
2022-07-25T21:06:19.864Z,23.67
2022-07-25T21:09:23.862Z,23.76
2022-07-25T21:12:21.120Z,23.84
2022-07-25T21:15:18.141Z,23.80
2022-07-25T21:18:14.955Z,23.74
2022-07-25T21:21:12.452Z,23.76
2022-07-25T21:24:12.078Z,23.70
2022-07-25T21:27:09.305Z,23.50
2022-07-25T21:30:10.592Z,23.54
2022-07-25T21:33:14.265Z,23.57
2022-07-25T21:36:11.954Z,23.49
2022-07-25T21:39:09.589Z,23.58
2022-07-25T21:42:09.914Z,23.64
2022-07-25T21:45:07.675Z,23.64
2022-07-25T21:48:05.624Z,23.33
2022-07-25T21:51:07.754Z,23.35
2022-07-25T21:54:05.268Z,23.26
2022-07-25T21:57:01.993Z,23.21
2022-07-25T21:59:58.933Z,23.12
2022-07-25T22:02:56.454Z,23.09
2022-07-25T22:05:54.068Z,22.94
2022-07-25T22:08:51.099Z,22.87
2022-07-25T22:11:48.273Z,23.00
2022-07-25T22:14:44.898Z,23.09
2022-07-25T22:17:48.197Z,23.12
2022-07-25T22:20:47.110Z,23.19
2022-07-25T22:23:44.340Z,23.01
2022-07-25T22:26:46.851Z,22.99
2022-07-25T22:29:44.292Z,22.96
2022-07-25T22:32:42.227Z,22.86
2022-07-25T22:35:39.069Z,22.77
2022-07-25T22:38:36.147Z,22.90
2022-07-25T22:41:33.021Z,23.03
2022-07-25T22:44:30.226Z,23.14
2022-07-25T22:47:27.828Z,23.24
2022-07-25T22:50:25.407Z,23.25
2022-07-25T22:53:23.506Z,23.20
2022-07-25T22:56:21.835Z,23.02
2022-07-25T22:59:19.376Z,23.07
2022-07-25T23:02:17.364Z,22.98
2022-07-25T23:05:16.169Z,22.79
2022-07-25T23:08:12.967Z,22.84
2022-07-25T23:11:14.113Z,22.80
2022-07-25T23:14:11.446Z,22.85
2022-07-25T23:17:17.797Z,22.82
2022-07-25T23:20:15.344Z,22.80
2022-07-25T23:23:12.150Z,22.83
2022-07-25T23:26:09.089Z,22.63
2022-07-25T23:29:06.554Z,22.48
2022-07-25T23:32:04.303Z,22.44
2022-07-25T23:35:01.851Z,22.52
2022-07-25T23:37:58.734Z,22.52
2022-07-25T23:40:57.114Z,22.57
2022-07-25T23:43:57.474Z,22.65
2022-07-25T23:46:57.456Z,22.55
2022-07-25T23:49:55.025Z,22.46
2022-07-25T23:52:51.880Z,22.10
2022-07-25T23:55:49.317Z,21.95
2022-07-25T23:58:47.537Z,21.85
